createdAt,value
2018-02-05T00:00:24.478Z,37.97
2018-02-05T00:02:51.219Z,35.70
2018-02-05T00:05:17.953Z,32.40
2018-02-05T00:07:44.751Z,35.70
2018-02-05T00:10:11.465Z,35.17
2018-02-05T00:12:38.172Z,34.07
2018-02-05T00:15:04.947Z,36.70
2018-02-05T00:17:31.674Z,32.40
2018-02-05T00:19:58.385Z,35.80
2018-02-05T00:22:25.114Z,37.53
2018-02-05T00:24:52.765Z,39.73
2018-02-05T00:27:19.524Z,32.20
2018-02-05T00:29:46.304Z,33.17
2018-02-05T00:32:13.051Z,43.37
2018-02-05T00:34:39.765Z,33.67
2018-02-05T00:37:06.505Z,36.07
2018-02-05T00:39:33.209Z,34.27
2018-02-05T00:41:59.993Z,36.13
2018-02-05T00:44:28.450Z,33.13
2018-02-05T00:46:55.165Z,36.70
2018-02-05T00:49:21.893Z,33.13
2018-02-05T00:51:48.634Z,33.27
2018-02-05T00:54:15.675Z,37.47
2018-02-05T00:56:42.376Z,36.83
2018-02-05T00:59:09.136Z,32.20
2018-02-05T01:01:36.172Z,34.27
2018-02-05T01:04:02.875Z,33.77
2018-02-05T01:06:29.620Z,36.20
2018-02-05T01:08:56.386Z,35.67
2018-02-05T01:11:23.106Z,34.27
2018-02-05T01:13:49.923Z,36.13
2018-02-05T01:16:16.665Z,30.50
2018-02-05T01:18:43.353Z,36.50
2018-02-05T01:21:10.155Z,37.87
2018-02-05T01:23:36.873Z,35.37
2018-02-05T01:26:03.592Z,33.53
2018-02-05T01:28:30.294Z,34.70
2018-02-05T01:30:56.999Z,35.63
2018-02-05T01:33:23.734Z,34.87
2018-02-05T01:35:50.435Z,32.43
2018-02-05T01:38:17.867Z,29.73
2018-02-05T01:40:44.609Z,34.77
2018-02-05T01:43:11.334Z,34.90
2018-02-05T01:45:38.038Z,37.00
2018-02-05T01:48:04.776Z,32.87
2018-02-05T01:50:31.519Z,35.63
2018-02-05T01:52:58.212Z,30.80
2018-02-05T01:55:25.010Z,36.73
2018-02-05T01:57:51.749Z,31.70
2018-02-05T02:00:18.461Z,32.13
2018-02-05T02:02:45.169Z,33.63
2018-02-05T02:05:11.885Z,34.97
2018-02-05T02:07:38.587Z,31.60
2018-02-05T02:10:05.307Z,33.00
2018-02-05T02:12:32.026Z,29.93
2018-02-05T02:14:58.773Z,33.83
2018-02-05T02:17:25.452Z,35.40
2018-02-05T02:19:52.170Z,30.10
2018-02-05T02:22:18.931Z,31.20
2018-02-05T02:24:45.648Z,32.17
2018-02-05T02:27:12.373Z,31.00
2018-02-05T02:29:39.096Z,31.90
2018-02-05T02:32:05.836Z,33.00
2018-02-05T02:34:32.572Z,30.47
2018-02-05T02:36:59.309Z,35.87
2018-02-05T02:39:26.029Z,31.70
2018-02-05T02:41:52.738Z,29.97
2018-02-05T02:44:19.471Z,31.93
2018-02-05T02:46:46.177Z,31.93
2018-02-05T02:49:12.951Z,36.33
2018-02-05T02:51:39.654Z,36.00
2018-02-05T02:54:06.355Z,33.93
2018-02-05T02:56:33.123Z,34.57
2018-02-05T02:58:59.870Z,33.00
2018-02-05T03:01:26.675Z,34.67
2018-02-05T03:03:53.368Z,38.37
2018-02-05T03:06:20.109Z,38.37
2018-02-05T03:08:46.820Z,35.63
2018-02-05T03:11:13.545Z,41.00
2018-02-05T03:13:40.251Z,36.83
2018-02-05T03:16:07.057Z,40.53
2018-02-05T03:18:33.773Z,35.63
2018-02-05T03:21:00.591Z,38.10
2018-02-05T03:23:27.293Z,45.70
2018-02-05T03:25:53.996Z,37.60
2018-02-05T03:28:20.713Z,39.97
2018-02-05T03:30:47.407Z,40.87
2018-02-05T03:33:14.183Z,39.33
2018-02-05T03:35:40.874Z,39.47
2018-02-05T03:38:07.595Z,38.20
2018-02-05T03:40:34.283Z,38.70
2018-02-05T03:43:01.049Z,37.70
2018-02-05T03:45:27.763Z,36.13
2018-02-05T03:47:54.490Z,39.13
2018-02-05T03:50:21.181Z,40.27
2018-02-05T03:52:47.879Z,36.30
2018-02-05T03:55:14.726Z,39.97
2018-02-05T03:57:42.128Z,35.33
2018-02-05T04:00:08.810Z,39.57
2018-02-05T04:02:35.534Z,38.63
2018-02-05T04:05:02.248Z,36.57
2018-02-05T04:07:28.967Z,35.13
2018-02-05T04:09:55.721Z,39.10
2018-02-05T04:12:22.439Z,41.10
2018-02-05T04:14:49.130Z,32.53
2018-02-05T04:17:15.840Z,39.60
2018-02-05T04:19:42.539Z,38.17
2018-02-05T04:22:09.248Z,43.43
2018-02-05T04:24:36.926Z,35.57
2018-02-05T04:27:03.673Z,32.13
2018-02-05T04:29:30.761Z,37.33
2018-02-05T04:31:57.490Z,40.60
2018-02-05T04:34:24.242Z,39.17
2018-02-05T04:36:50.946Z,36.37
2018-02-05T04:39:17.678Z,37.93
2018-02-05T04:41:44.380Z,35.30
2018-02-05T04:44:11.146Z,38.03
2018-02-05T04:46:37.870Z,40.50
2018-02-05T04:49:04.626Z,38.30
2018-02-05T04:51:32.160Z,36.00
2018-02-05T04:53:58.857Z,36.83
2018-02-05T04:56:25.619Z,36.23
2018-02-05T04:58:52.312Z,33.20
2018-02-05T05:01:19.310Z,35.97
2018-02-05T05:03:46.036Z,35.67
2018-02-05T05:06:12.732Z,36.03
2018-02-05T05:08:39.466Z,38.63
2018-02-05T05:11:06.166Z,39.70
2018-02-05T05:13:32.881Z,34.20
2018-02-05T05:15:59.601Z,39.20
2018-02-05T05:18:26.391Z,39.77
2018-02-05T05:20:53.116Z,35.40
2018-02-05T05:23:19.835Z,32.83
2018-02-05T05:25:46.783Z,37.13
2018-02-05T05:28:13.475Z,36.23
2018-02-05T05:30:40.183Z,35.80
2018-02-05T05:33:07.335Z,38.83
2018-02-05T05:35:34.044Z,39.00
2018-02-05T05:38:00.761Z,34.87
2018-02-05T05:40:27.456Z,35.17
2018-02-05T05:42:54.160Z,33.67
2018-02-05T05:45:20.904Z,38.10
2018-02-05T05:47:47.598Z,39.90
2018-02-05T05:50:14.350Z,37.73
2018-02-05T05:52:41.039Z,34.90
2018-02-05T05:55:07.797Z,34.93
2018-02-05T05:57:34.857Z,35.47
2018-02-05T06:00:01.527Z,36.03
2018-02-05T06:02:28.232Z,36.70
2018-02-05T06:04:54.976Z,37.27
2018-02-05T06:07:21.742Z,31.30
2018-02-05T06:09:48.457Z,32.87
2018-02-05T06:12:15.195Z,33.50
2018-02-05T06:14:41.936Z,40.40
2018-02-05T06:17:08.647Z,36.77
2018-02-05T06:19:35.423Z,35.70
2018-02-05T06:22:02.184Z,33.20
2018-02-05T06:24:29.620Z,35.57
2018-02-05T06:26:56.329Z,34.50
2018-02-05T06:29:23.060Z,32.53
2018-02-05T06:31:49.851Z,36.47
2018-02-05T06:34:16.594Z,34.17
2018-02-05T06:36:43.287Z,35.60
2018-02-05T06:39:10.006Z,37.10
2018-02-05T06:41:37.181Z,29.93
2018-02-05T06:44:03.873Z,33.87
2018-02-05T06:46:30.645Z,39.27
2018-02-05T06:48:57.556Z,33.07
2018-02-05T06:51:30.125Z,30.93
2018-02-05T06:54:02.571Z,34.43
2018-02-05T06:56:29.283Z,37.70
2018-02-05T06:58:56.069Z,39.77
2018-02-05T07:01:22.800Z,37.57
2018-02-05T07:03:50.318Z,36.50
2018-02-05T07:06:17.101Z,34.47
2018-02-05T07:08:43.832Z,31.93
2018-02-05T07:11:10.603Z,34.57
2018-02-05T07:13:37.379Z,35.10
2018-02-05T07:16:04.133Z,33.13
2018-02-05T07:18:30.865Z,36.00
2018-02-05T07:20:57.666Z,31.63
2018-02-05T07:23:24.387Z,39.37
2018-02-05T07:25:51.120Z,33.73
2018-02-05T07:28:17.872Z,37.67
2018-02-05T07:30:44.959Z,34.53
2018-02-05T07:33:11.662Z,38.80
2018-02-05T07:35:38.335Z,32.77
2018-02-05T07:38:05.049Z,32.77
2018-02-05T07:40:31.807Z,33.80
2018-02-05T07:42:58.568Z,33.80
2018-02-05T07:45:25.290Z,34.33
2018-02-05T07:47:51.967Z,35.83
2018-02-05T07:50:18.737Z,35.80
2018-02-05T07:52:45.432Z,33.83
2018-02-05T07:55:12.302Z,29.37
2018-02-05T07:57:38.986Z,30.70
2018-02-05T08:00:05.744Z,31.70
2018-02-05T08:02:32.478Z,29.77
2018-02-05T08:04:59.304Z,31.20
2018-02-05T08:07:26.168Z,33.30
2018-02-05T08:09:52.872Z,32.70
2018-02-05T08:12:19.575Z,31.60
2018-02-05T08:14:46.498Z,34.80
2018-02-05T08:17:13.210Z,35.33
2018-02-05T08:19:39.927Z,33.07
2018-02-05T08:22:06.640Z,31.60
2018-02-05T08:24:33.380Z,34.90
2018-02-05T08:27:00.378Z,31.13
2018-02-05T08:29:27.148Z,32.70
2018-02-05T08:31:53.949Z,33.23
2018-02-05T08:34:20.705Z,29.50
2018-02-05T08:36:47.402Z,30.53
2018-02-05T08:39:14.107Z,29.90
2018-02-05T08:41:40.849Z,29.73
2018-02-05T08:44:07.555Z,30.07
2018-02-05T08:46:34.913Z,29.10
2018-02-05T08:49:01.589Z,30.33
2018-02-05T08:51:28.292Z,37.00
2018-02-05T08:53:55.065Z,28.33
2018-02-05T08:56:21.768Z,32.97
2018-02-05T08:58:48.480Z,31.80
2018-02-05T09:01:15.272Z,30.93
2018-02-05T09:03:41.998Z,30.60
2018-02-05T09:06:08.789Z,32.60
2018-02-05T09:08:35.484Z,33.00
2018-02-05T09:11:02.214Z,35.27
2018-02-05T09:13:28.935Z,32.47
2018-02-05T09:15:55.661Z,30.53
2018-02-05T09:18:22.386Z,29.23
2018-02-05T09:20:49.146Z,30.20
2018-02-05T09:23:15.887Z,34.00
2018-02-05T09:25:42.611Z,28.43
2018-02-05T09:28:09.314Z,31.87
2018-02-05T09:30:36.098Z,30.50
2018-02-05T09:33:03.288Z,31.43
2018-02-05T09:35:29.991Z,32.43
2018-02-05T09:37:56.715Z,30.83
2018-02-05T09:40:23.466Z,28.50
2018-02-05T09:42:50.178Z,31.63
2018-02-05T09:45:16.875Z,33.60
2018-02-05T09:47:43.602Z,31.90
2018-02-05T09:50:10.326Z,27.50
2018-02-05T09:52:37.073Z,29.87
2018-02-05T09:55:03.771Z,31.10
2018-02-05T09:57:30.514Z,31.00
2018-02-05T09:59:57.221Z,34.97
2018-02-05T10:02:23.916Z,28.70
2018-02-05T10:04:50.727Z,30.73
2018-02-05T10:07:17.446Z,24.83
2018-02-05T10:09:44.156Z,29.17
2018-02-05T10:12:10.913Z,28.57
2018-02-05T10:14:37.596Z,30.30
2018-02-05T10:17:04.298Z,27.20
2018-02-05T10:19:31.062Z,27.83
2018-02-05T10:21:58.563Z,31.37
2018-02-05T10:24:25.285Z,29.47
2018-02-05T10:26:52.001Z,29.50
2018-02-05T10:29:18.704Z,28.83
2018-02-05T10:31:45.436Z,30.70
2018-02-05T10:34:12.182Z,31.03
2018-02-05T10:36:38.861Z,31.80
2018-02-05T10:39:05.633Z,29.53
2018-02-05T10:41:32.356Z,35.47
2018-02-05T10:43:59.071Z,27.00
2018-02-05T10:46:25.888Z,26.57
2018-02-05T10:48:52.601Z,29.30
2018-02-05T10:51:19.330Z,27.90
2018-02-05T10:53:46.055Z,28.50
2018-02-05T10:56:12.765Z,26.73
2018-02-05T10:58:39.463Z,27.50
2018-02-05T11:01:06.239Z,28.23
2018-02-05T11:03:32.992Z,26.80
2018-02-05T11:05:59.682Z,25.73
2018-02-05T11:08:26.365Z,30.23
2018-02-05T11:10:53.073Z,27.60
2018-02-05T11:13:19.815Z,26.50
2018-02-05T11:15:46.590Z,28.10
2018-02-05T11:18:13.365Z,24.73
2018-02-05T11:20:40.099Z,26.67
2018-02-05T11:23:06.860Z,27.83
2018-02-05T11:25:33.561Z,26.10
2018-02-05T11:28:00.263Z,27.10
2018-02-05T11:30:26.976Z,26.40
2018-02-05T11:32:54.492Z,28.27
2018-02-05T11:35:21.162Z,24.40
2018-02-05T11:37:47.926Z,29.20
2018-02-05T11:40:14.615Z,21.90
2018-02-05T11:42:41.831Z,27.10
2018-02-05T11:45:08.533Z,23.63
2018-02-05T11:47:35.267Z,22.77
2018-02-05T11:50:02.038Z,26.20
2018-02-05T11:52:28.750Z,22.00
2018-02-05T11:54:55.543Z,23.90
2018-02-05T11:57:22.314Z,21.33
2018-02-05T11:59:49.006Z,22.33
2018-02-05T12:02:15.742Z,22.50
2018-02-05T12:04:42.451Z,23.60
2018-02-05T12:07:09.133Z,25.67
2018-02-05T12:09:35.914Z,23.90
2018-02-05T12:12:02.643Z,24.20
2018-02-05T12:14:29.596Z,24.57
2018-02-05T12:16:56.314Z,24.03
2018-02-05T12:19:23.093Z,22.90
2018-02-05T12:21:49.841Z,25.97
2018-02-05T12:24:16.751Z,27.87
2018-02-05T12:26:43.483Z,26.53
2018-02-05T12:29:10.225Z,23.23
2018-02-05T12:31:37.003Z,24.00
2018-02-05T12:34:03.791Z,25.30
2018-02-05T12:36:30.582Z,29.00
2018-02-05T12:38:57.298Z,26.80
2018-02-05T12:41:24.128Z,23.17
2018-02-05T12:43:50.834Z,24.60
2018-02-05T12:46:17.572Z,22.70
2018-02-05T12:48:44.844Z,26.57
2018-02-05T12:51:11.596Z,24.83
2018-02-05T12:53:38.304Z,26.30
2018-02-05T12:56:05.727Z,22.00
2018-02-05T12:58:35.190Z,23.70
2018-02-05T13:01:07.742Z,25.07
2018-02-05T13:03:45.650Z,25.60
2018-02-05T13:06:18.044Z,23.80
2018-02-05T13:08:44.851Z,26.07
2018-02-05T13:11:11.654Z,24.17
2018-02-05T13:13:38.366Z,25.33
2018-02-05T13:16:05.950Z,24.50
2018-02-05T13:18:32.908Z,22.30
2018-02-05T13:20:59.898Z,26.00
2018-02-05T13:23:26.651Z,19.30
2018-02-05T13:25:53.428Z,21.83
2018-02-05T13:28:20.252Z,25.00
2018-02-05T13:30:46.930Z,21.57
2018-02-05T13:33:13.635Z,23.00
2018-02-05T13:35:40.350Z,26.83
2018-02-05T13:38:07.216Z,24.17
2018-02-05T13:40:33.986Z,24.43
2018-02-05T13:43:00.680Z,22.50
2018-02-05T13:45:27.394Z,21.00
2018-02-05T13:47:54.095Z,21.10
2018-02-05T13:50:21.089Z,20.67
2018-02-05T13:52:47.844Z,22.23
2018-02-05T13:55:14.524Z,21.70
2018-02-05T13:57:41.909Z,22.37
2018-02-05T14:00:08.614Z,21.03
2018-02-05T14:02:35.466Z,21.67
2018-02-05T14:05:02.273Z,20.70
2018-02-05T14:07:28.957Z,22.90
2018-02-05T14:09:55.701Z,22.20
2018-02-05T14:12:22.376Z,17.73
2018-02-05T14:14:49.094Z,22.70
2018-02-05T14:17:16.759Z,23.70
2018-02-05T14:19:43.472Z,23.23
2018-02-05T14:22:10.205Z,21.20
2018-02-05T14:24:36.897Z,20.77
2018-02-05T14:27:03.651Z,22.43
2018-02-05T14:29:31.438Z,24.23
2018-02-05T14:31:58.254Z,19.90
2018-02-05T14:34:24.977Z,21.13
2018-02-05T14:36:51.724Z,21.13
2018-02-05T14:39:18.459Z,19.77
2018-02-05T14:41:45.169Z,21.57
2018-02-05T14:44:11.908Z,23.00
2018-02-05T14:46:38.620Z,22.93
2018-02-05T14:49:05.298Z,19.83
2018-02-05T14:51:32.103Z,19.70
2018-02-05T14:53:58.835Z,22.67
2018-02-05T14:56:25.552Z,21.70
2018-02-05T14:58:52.357Z,20.90
2018-02-05T15:01:19.108Z,19.80
2018-02-05T15:03:45.948Z,19.83
2018-02-05T15:06:12.722Z,20.30
2018-02-05T15:08:39.474Z,17.80
2018-02-05T15:11:06.205Z,20.87
2018-02-05T15:13:32.942Z,18.83
2018-02-05T15:15:59.673Z,21.30
2018-02-05T15:18:27.385Z,22.37
2018-02-05T15:20:54.138Z,19.67
2018-02-05T15:23:20.858Z,18.30
2018-02-05T15:25:47.722Z,20.10
2018-02-05T15:28:14.450Z,17.83
2018-02-05T15:30:41.240Z,19.70
2018-02-05T15:33:07.931Z,19.70
2018-02-05T15:35:34.710Z,18.00
2018-02-05T15:38:01.497Z,18.17
2018-02-05T15:40:29.652Z,20.90
2018-02-05T15:42:56.514Z,20.50
2018-02-05T15:45:23.316Z,21.60
2018-02-05T15:47:50.064Z,19.80
2018-02-05T15:50:16.948Z,18.77
2018-02-05T15:52:43.666Z,18.73
2018-02-05T15:55:10.389Z,18.80
2018-02-05T15:57:37.069Z,20.20
2018-02-05T16:00:03.782Z,17.27
2018-02-05T16:02:30.561Z,18.23
2018-02-05T16:04:57.261Z,22.53
2018-02-05T16:07:24.655Z,19.67
2018-02-05T16:09:51.348Z,16.97
2018-02-05T16:12:18.048Z,19.63
2018-02-05T16:14:44.774Z,20.63
2018-02-05T16:17:11.464Z,22.43
2018-02-05T16:19:38.186Z,17.83
2018-02-05T16:22:04.935Z,16.67
2018-02-05T16:24:31.887Z,16.03
2018-02-05T16:26:58.603Z,16.23
2018-02-05T16:29:25.363Z,16.20
2018-02-05T16:31:52.071Z,18.13
2018-02-05T16:34:18.769Z,17.37
2018-02-05T16:36:45.528Z,15.67
2018-02-05T16:39:12.226Z,16.03
2018-02-05T16:41:38.968Z,19.83
2018-02-05T16:44:05.680Z,19.20
2018-02-05T16:46:32.458Z,16.37
2018-02-05T16:48:59.211Z,17.33
2018-02-05T16:51:26.058Z,18.23
2018-02-05T16:53:52.770Z,16.47
2018-02-05T16:56:19.497Z,19.20
2018-02-05T16:58:46.283Z,15.77
2018-02-05T17:01:12.977Z,15.47
2018-02-05T17:03:39.702Z,18.40
2018-02-05T17:06:06.413Z,19.93
2018-02-05T17:08:33.119Z,19.37
2018-02-05T17:11:00.116Z,19.40
2018-02-05T17:13:26.902Z,16.80
2018-02-05T17:15:53.669Z,19.97
2018-02-05T17:18:20.384Z,16.63
2018-02-05T17:20:47.127Z,15.60
2018-02-05T17:23:13.941Z,18.10
2018-02-05T17:25:40.654Z,22.20
2018-02-05T17:28:07.452Z,16.10
2018-02-05T17:30:34.294Z,18.73
2018-02-05T17:33:01.034Z,16.83
2018-02-05T17:35:27.751Z,16.97
2018-02-05T17:37:54.433Z,19.13
2018-02-05T17:40:21.167Z,17.63
2018-02-05T17:42:47.906Z,17.80
2018-02-05T17:45:14.598Z,19.30
2018-02-05T17:47:41.411Z,21.73
2018-02-05T17:50:08.198Z,20.23
2018-02-05T17:52:34.873Z,18.43
2018-02-05T17:55:01.582Z,23.13
2018-02-05T17:57:28.344Z,20.10
2018-02-05T17:59:55.074Z,16.37
2018-02-05T18:02:21.764Z,17.43
2018-02-05T18:04:48.534Z,19.40
2018-02-05T18:07:15.304Z,20.13
2018-02-05T18:09:42.016Z,20.93
2018-02-05T18:12:08.782Z,17.57
2018-02-05T18:14:35.979Z,18.17
2018-02-05T18:17:02.896Z,20.57
2018-02-05T18:19:30.196Z,19.87
2018-02-05T18:21:56.933Z,21.60
2018-02-05T18:24:24.569Z,21.00
2018-02-05T18:26:51.253Z,18.17
2018-02-05T18:29:18.068Z,18.07
2018-02-05T18:31:44.853Z,19.50
2018-02-05T18:34:11.614Z,20.80
2018-02-05T18:36:38.324Z,21.40
2018-02-05T18:39:05.053Z,19.73
2018-02-05T18:41:31.769Z,21.10
2018-02-05T18:43:58.501Z,17.77
2018-02-05T18:46:25.980Z,17.40
2018-02-05T18:48:52.718Z,20.03
2018-02-05T18:51:19.395Z,18.33
2018-02-05T18:53:46.147Z,20.77
2018-02-05T18:56:12.837Z,18.10
2018-02-05T18:58:39.617Z,18.73
2018-02-05T19:01:06.317Z,18.27
2018-02-05T19:03:33.065Z,18.43
2018-02-05T19:06:00.640Z,18.40
2018-02-05T19:08:27.430Z,21.13
2018-02-05T19:10:54.126Z,20.47
2018-02-05T19:13:20.856Z,19.60
2018-02-05T19:15:47.558Z,18.87
2018-02-05T19:18:14.226Z,18.33
2018-02-05T19:20:40.987Z,17.70
2018-02-05T19:23:07.776Z,17.20
2018-02-05T19:25:34.565Z,22.13
2018-02-05T19:28:01.281Z,17.73
2018-02-05T19:30:27.966Z,20.77
2018-02-05T19:32:54.761Z,20.13
2018-02-05T19:35:21.812Z,16.97
2018-02-05T19:37:48.531Z,18.83
2018-02-05T19:40:15.269Z,19.10
2018-02-05T19:42:42.034Z,17.67
2018-02-05T19:45:08.766Z,16.97
2018-02-05T19:47:35.465Z,17.20
2018-02-05T19:50:02.207Z,15.63
2018-02-05T19:52:28.984Z,16.60
2018-02-05T19:54:55.722Z,20.07
2018-02-05T19:59:55.456Z,17.90
2018-02-05T20:02:22.205Z,20.13
2018-02-05T20:04:48.965Z,16.90
2018-02-05T20:07:15.736Z,16.10
2018-02-05T20:09:42.444Z,19.10
2018-02-05T20:12:09.149Z,20.10
2018-02-05T20:14:36.237Z,18.47
2018-02-05T20:17:02.973Z,20.47
2018-02-05T20:19:30.726Z,19.60
2018-02-05T20:21:58.052Z,19.10
2018-02-05T20:24:24.749Z,17.27
2018-02-05T20:26:51.453Z,17.60
2018-02-05T20:29:18.177Z,17.77
2018-02-05T20:31:44.901Z,18.53
2018-02-05T20:34:11.627Z,19.77
2018-02-05T20:36:38.345Z,17.07
2018-02-05T20:39:05.137Z,18.37
2018-02-05T20:41:31.827Z,19.63
2018-02-05T20:43:58.824Z,17.90
2018-02-05T20:46:25.579Z,18.17
2018-02-05T20:48:52.294Z,19.50
2018-02-05T20:51:19.186Z,18.37
2018-02-05T20:53:45.857Z,19.90
2018-02-05T20:56:12.593Z,19.67
2018-02-05T20:58:39.387Z,20.50
2018-02-05T21:01:06.126Z,16.10
2018-02-05T21:03:32.847Z,18.60
2018-02-05T21:05:59.993Z,20.73
2018-02-05T21:08:26.746Z,20.10
2018-02-05T21:10:53.593Z,18.67
2018-02-05T21:13:20.392Z,18.57
2018-02-05T21:15:47.161Z,18.03
2018-02-05T21:18:14.104Z,21.23
2018-02-05T21:20:40.876Z,19.47
2018-02-05T21:23:07.629Z,21.07
2018-02-05T21:25:34.438Z,16.37
2018-02-05T21:28:01.208Z,18.20
2018-02-05T21:30:28.208Z,16.70
2018-02-05T21:32:54.975Z,15.77
2018-02-05T21:35:21.796Z,20.80
2018-02-05T21:37:48.553Z,16.00
2018-02-05T21:40:15.270Z,17.40
2018-02-05T21:42:41.998Z,18.63
2018-02-05T21:45:08.773Z,18.23
2018-02-05T21:47:35.563Z,18.77
2018-02-05T21:50:02.466Z,17.27
2018-02-05T21:52:29.297Z,17.83
2018-02-05T21:54:56.128Z,18.00
2018-02-05T21:57:22.910Z,19.03
2018-02-05T21:59:49.625Z,17.67
2018-02-05T22:02:16.346Z,15.80
2018-02-05T22:04:43.137Z,17.50
2018-02-05T22:07:09.966Z,19.50
2018-02-05T22:09:36.807Z,16.80
2018-02-05T22:12:03.525Z,16.87
2018-02-05T22:14:30.236Z,19.87
2018-02-05T22:16:57.333Z,20.83
2018-02-05T22:19:24.254Z,18.63
2018-02-05T22:21:51.057Z,16.73
2018-02-05T22:24:17.813Z,16.27
2018-02-05T22:26:44.565Z,17.37
2018-02-05T22:29:11.261Z,21.40
2018-02-05T22:31:38.365Z,18.10
2018-02-05T22:34:05.450Z,19.40
2018-02-05T22:36:32.141Z,19.80
2018-02-05T22:38:58.939Z,19.07
2018-02-05T22:41:25.703Z,18.57
2018-02-05T22:43:52.415Z,20.43
2018-02-05T22:46:19.943Z,14.73
2018-02-05T22:48:46.645Z,18.73
2018-02-05T22:51:13.410Z,16.77
2018-02-05T22:53:40.153Z,21.83
2018-02-05T22:56:06.986Z,20.60
2018-02-05T22:58:33.940Z,18.60
2018-02-05T23:01:00.717Z,21.23
2018-02-05T23:03:27.471Z,20.20
2018-02-05T23:05:54.647Z,17.93
2018-02-05T23:08:21.392Z,23.20
2018-02-05T23:10:48.259Z,21.03
2018-02-05T23:13:15.194Z,19.37
2018-02-05T23:15:41.950Z,20.40
2018-02-05T23:18:08.738Z,17.80
2018-02-05T23:20:35.724Z,22.60
2018-02-05T23:23:03.137Z,19.00
2018-02-05T23:25:29.912Z,20.40
2018-02-05T23:27:56.750Z,19.00
2018-02-05T23:30:23.711Z,19.70
2018-02-05T23:32:50.464Z,19.73
2018-02-05T23:35:17.349Z,19.43
2018-02-05T23:37:44.277Z,20.43
2018-02-05T23:40:11.065Z,18.90
2018-02-05T23:42:38.234Z,18.03
2018-02-05T23:45:05.180Z,19.60
2018-02-05T23:47:32.103Z,20.20
2018-02-05T23:49:58.911Z,19.33
2018-02-05T23:52:25.712Z,22.80
2018-02-05T23:54:52.402Z,19.43
2018-02-05T23:57:19.189Z,20.90
2018-02-05T23:59:45.915Z,19.50
